sensor_id;sensor_type;location;lat;lon;timestamp;P1;durP1;ratioP1;P2;durP2;ratioP2
8450;SDS011;4262;50.980;13.892;2023-02-04T05:02:54;6.57;;;3.93;;
8450;SDS011;4262;50.980;13.892;2023-02-04T05:05:20;5.77;;;3.50;;
8450;SDS011;4262;50.980;13.892;2023-02-04T05:07:48;6.70;;;3.20;;
8450;SDS011;4262;50.980;13.892;2023-02-04T05:10:15;6.87;;;4.10;;
8450;SDS011;4262;50.980;13.892;2023-02-04T05:12:42;7.10;;;3.90;;
8450;SDS011;4262;50.980;13.892;2023-02-04T05:15:09;7.30;;;3.40;;
8450;SDS011;4262;50.980;13.892;2023-02-04T05:17:37;5.50;;;3.40;;
8450;SDS011;4262;50.980;13.892;2023-02-04T05:20:06;6.47;;;3.73;;
8450;SDS011;4262;50.980;13.892;2023-02-04T05:22:35;9.80;;;3.87;;
8450;SDS011;4262;50.980;13.892;2023-02-04T05:25:02;5.97;;;4.10;;
8450;SDS011;4262;50.980;13.892;2023-02-04T05:27:29;6.10;;;3.97;;
8450;SDS011;4262;50.980;13.892;2023-02-04T05:29:55;6.50;;;4.53;;
8450;SDS011;4262;50.980;13.892;2023-02-04T05:32:22;6.17;;;3.40;;
8450;SDS011;4262;50.980;13.892;2023-02-04T05:34:49;6.13;;;3.60;;
8450;SDS011;4262;50.980;13.892;2023-02-04T05:37:17;5.70;;;3.30;;
8450;SDS011;4262;50.980;13.892;2023-02-04T05:39:45;5.53;;;3.43;;
8450;SDS011;4262;50.980;13.892;2023-02-04T05:42:12;6.90;;;4.00;;
8450;SDS011;4262;50.980;13.892;2023-02-04T05:44:39;9.90;;;4.20;;
8450;SDS011;4262;50.980;13.892;2023-02-04T05:47:07;4.60;;;2.80;;
8450;SDS011;4262;50.980;13.892;2023-02-04T05:49:33;5.00;;;3.17;;
8450;SDS011;4262;50.980;13.892;2023-02-04T05:52:03;5.73;;;2.97;;
8450;SDS011;4262;50.980;13.892;2023-02-04T05:54:31;7.57;;;3.37;;
8450;SDS011;4262;50.980;13.892;2023-02-04T05:56:59;6.70;;;3.80;;
8450;SDS011;4262;50.980;13.892;2023-02-04T05:59:26;6.27;;;3.50;;
8450;SDS011;4262;50.980;13.892;2023-02-04T06:01:53;5.67;;;3.70;;
8450;SDS011;4262;50.980;13.892;2023-02-04T06:04:20;6.13;;;3.53;;
8450;SDS011;4262;50.980;13.892;2023-02-04T06:06:48;5.70;;;3.57;;
8450;SDS011;4262;50.980;13.892;2023-02-04T06:09:15;7.53;;;4.13;;
8450;SDS011;4262;50.980;13.892;2023-02-04T06:11:43;6.90;;;4.47;;
8450;SDS011;4262;50.980;13.892;2023-02-04T06:14:10;6.43;;;3.80;;
8450;SDS011;4262;50.980;13.892;2023-02-04T06:16:38;6.23;;;3.63;;
8450;SDS011;4262;50.980;13.892;2023-02-04T06:19:05;7.03;;;3.70;;
8450;SDS011;4262;50.980;13.892;2023-02-04T06:21:33;7.53;;;4.20;;
8450;SDS011;4262;50.980;13.892;2023-02-04T06:23:59;6.90;;;3.77;;
8450;SDS011;4262;50.980;13.892;2023-02-04T06:26:26;5.60;;;3.03;;
8450;SDS011;4262;50.980;13.892;2023-02-04T06:28:54;6.00;;;3.97;;
8450;SDS011;4262;50.980;13.892;2023-02-04T06:31:21;6.50;;;3.97;;
8450;SDS011;4262;50.980;13.892;2023-02-04T06:33:48;5.40;;;3.33;;
8450;SDS011;4262;50.980;13.892;2023-02-04T06:36:16;5.97;;;3.97;;
8450;SDS011;4262;50.980;13.892;2023-02-04T06:38:43;6.33;;;3.70;;
8450;SDS011;4262;50.980;13.892;2023-02-04T06:41:10;7.00;;;3.60;;
8450;SDS011;4262;50.980;13.892;2023-02-04T06:43:37;6.57;;;4.30;;
8450;SDS011;4262;50.980;13.892;2023-02-04T06:46:05;5.27;;;3.30;;
8450;SDS011;4262;50.980;13.892;2023-02-04T06:48:33;5.87;;;3.47;;
8450;SDS011;4262;50.980;13.892;2023-02-04T06:51:02;5.57;;;3.50;;
8450;SDS011;4262;50.980;13.892;2023-02-04T06:53:29;6.60;;;4.50;;
8450;SDS011;4262;50.980;13.892;2023-02-04T06:55:56;5.13;;;3.67;;
8450;SDS011;4262;50.980;13.892;2023-02-04T06:58:22;6.53;;;3.37;;
8450;SDS011;4262;50.980;13.892;2023-02-04T07:00:49;6.20;;;3.67;;
8450;SDS011;4262;50.980;13.892;2023-02-04T07:03:17;9.40;;;3.70;;
8450;SDS011;4262;50.980;13.892;2023-02-04T07:05:44;8.43;;;3.63;;
8450;SDS011;4262;50.980;13.892;2023-02-04T07:08:11;10.30;;;5.07;;
8450;SDS011;4262;50.980;13.892;2023-02-04T07:10:37;8.63;;;4.63;;
8450;SDS011;4262;50.980;13.892;2023-02-04T07:13:04;12.50;;;5.23;;
8450;SDS011;4262;50.980;13.892;2023-02-04T07:15:31;9.50;;;5.00;;
8450;SDS011;4262;50.980;13.892;2023-02-04T07:17:59;9.40;;;4.97;;
8450;SDS011;4262;50.980;13.892;2023-02-04T07:20:28;14.47;;;4.83;;
8450;SDS011;4262;50.980;13.892;2023-02-04T07:22:54;9.17;;;5.23;;
8450;SDS011;4262;50.980;13.892;2023-02-04T07:25:21;7.10;;;4.47;;
8450;SDS011;4262;50.980;13.892;2023-02-04T07:27:49;9.00;;;5.07;;
8450;SDS011;4262;50.980;13.892;2023-02-04T07:30:16;8.10;;;4.43;;
8450;SDS011;4262;50.980;13.892;2023-02-04T07:32:43;10.13;;;5.30;;
8450;SDS011;4262;50.980;13.892;2023-02-04T07:35:09;8.30;;;4.60;;
8450;SDS011;4262;50.980;13.892;2023-02-04T07:37:38;11.70;;;5.20;;
8450;SDS011;4262;50.980;13.892;2023-02-04T07:40:05;12.30;;;5.67;;
8450;SDS011;4262;50.980;13.892;2023-02-04T07:42:33;9.50;;;4.90;;
8450;SDS011;4262;50.980;13.892;2023-02-04T07:45:08;7.40;;;4.80;;
8450;SDS011;4262;50.980;13.892;2023-02-04T07:47:36;8.97;;;4.93;;
8450;SDS011;4262;50.980;13.892;2023-02-04T07:50:03;7.77;;;4.93;;
8450;SDS011;4262;50.980;13.892;2023-02-04T07:52:32;8.07;;;4.73;;
8450;SDS011;4262;50.980;13.892;2023-02-04T07:55:00;8.50;;;4.87;;
8450;SDS011;4262;50.980;13.892;2023-02-04T07:57:28;7.27;;;4.77;;
8450;SDS011;4262;50.980;13.892;2023-02-04T07:59:55;13.10;;;5.23;;
8450;SDS011;4262;50.980;13.892;2023-02-04T08:02:22;6.97;;;4.40;;
8450;SDS011;4262;50.980;13.892;2023-02-04T08:04:49;8.47;;;4.90;;
8450;SDS011;4262;50.980;13.892;2023-02-04T08:07:17;11.90;;;4.87;;
8450;SDS011;4262;50.980;13.892;2023-02-04T08:09:44;9.00;;;5.93;;
8450;SDS011;4262;50.980;13.892;2023-02-04T08:12:12;7.90;;;4.17;;
8450;SDS011;4262;50.980;13.892;2023-02-04T08:14:39;12.93;;;5.30;;
8450;SDS011;4262;50.980;13.892;2023-02-04T08:17:07;15.33;;;5.67;;
8450;SDS011;4262;50.980;13.892;2023-02-04T08:19:34;9.00;;;5.10;;
8450;SDS011;4262;50.980;13.892;2023-02-04T08:22:00;8.20;;;4.80;;
8450;SDS011;4262;50.980;13.892;2023-02-04T08:24:27;27.13;;;6.97;;
8450;SDS011;4262;50.980;13.892;2023-02-04T08:26:54;12.83;;;5.60;;
8450;SDS011;4262;50.980;13.892;2023-02-04T08:29:23;13.03;;;5.30;;
8450;SDS011;4262;50.980;13.892;2023-02-04T08:31:51;12.00;;;5.50;;
8450;SDS011;4262;50.980;13.892;2023-02-04T08:34:17;9.27;;;5.27;;
8450;SDS011;4262;50.980;13.892;2023-02-04T08:36:44;7.00;;;4.70;;
8450;SDS011;4262;50.980;13.892;2023-02-04T08:39:11;8.33;;;4.70;;
8450;SDS011;4262;50.980;13.892;2023-02-04T08:41:38;10.10;;;5.37;;
8450;SDS011;4262;50.980;13.892;2023-02-04T08:44:04;9.13;;;5.30;;
8450;SDS011;4262;50.980;13.892;2023-02-04T08:46:33;8.97;;;4.67;;
8450;SDS011;4262;50.980;13.892;2023-02-04T08:49:01;10.90;;;4.67;;
8450;SDS011;4262;50.980;13.892;2023-02-04T08:51:30;7.23;;;4.90;;
8450;SDS011;4262;50.980;13.892;2023-02-04T08:53:56;8.57;;;4.30;;
8450;SDS011;4262;50.980;13.892;2023-02-04T08:56:23;7.10;;;4.53;;
8450;SDS011;4262;50.980;13.892;2023-02-04T08:58:51;11.37;;;5.33;;
8450;SDS011;4262;50.980;13.892;2023-02-04T09:01:18;10.27;;;4.93;;
8450;SDS011;4262;50.980;13.892;2023-02-04T09:03:46;11.80;;;5.83;;
8450;SDS011;4262;50.980;13.892;2023-02-04T09:06:15;8.20;;;5.70;;
8450;SDS011;4262;50.980;13.892;2023-02-04T09:08:41;12.40;;;5.83;;
8450;SDS011;4262;50.980;13.892;2023-02-04T09:11:08;7.70;;;4.83;;
8450;SDS011;4262;50.980;13.892;2023-02-04T09:13:36;8.00;;;5.20;;
8450;SDS011;4262;50.980;13.892;2023-02-04T09:16:04;7.27;;;4.30;;
8450;SDS011;4262;50.980;13.892;2023-02-04T09:18:32;8.60;;;5.37;;
8450;SDS011;4262;50.980;13.892;2023-02-04T09:21:02;13.47;;;5.97;;
8450;SDS011;4262;50.980;13.892;2023-02-04T09:23:29;12.37;;;5.77;;
8450;SDS011;4262;50.980;13.892;2023-02-04T09:25:56;9.50;;;4.30;;
8450;SDS011;4262;50.980;13.892;2023-02-04T09:28:24;8.63;;;5.40;;
8450;SDS011;4262;50.980;13.892;2023-02-04T09:30:51;9.77;;;4.70;;
8450;SDS011;4262;50.980;13.892;2023-02-04T09:33:18;11.73;;;5.00;;
8450;SDS011;4262;50.980;13.892;2023-02-04T09:35:44;9.77;;;4.73;;
8450;SDS011;4262;50.980;13.892;2023-02-04T09:38:12;10.23;;;4.87;;
8450;SDS011;4262;50.980;13.892;2023-02-04T09:40:40;7.73;;;4.13;;
8450;SDS011;4262;50.980;13.892;2023-02-04T09:43:08;12.90;;;4.73;;
8450;SDS011;4262;50.980;13.892;2023-02-04T09:45:40;9.00;;;4.53;;
8450;SDS011;4262;50.980;13.892;2023-02-04T09:48:08;9.43;;;5.10;;
8450;SDS011;4262;50.980;13.892;2023-02-04T09:50:38;8.17;;;4.47;;
8450;SDS011;4262;50.980;13.892;2023-02-04T09:53:05;7.53;;;4.57;;
8450;SDS011;4262;50.980;13.892;2023-02-04T09:55:38;6.43;;;3.80;;
8450;SDS011;4262;50.980;13.892;2023-02-04T09:58:10;9.80;;;4.87;;
8450;SDS011;4262;50.980;13.892;2023-02-04T10:00:40;10.53;;;5.00;;
8450;SDS011;4262;50.980;13.892;2023-02-04T10:03:09;9.73;;;4.77;;
8450;SDS011;4262;50.980;13.892;2023-02-04T10:05:40;7.80;;;4.80;;
8450;SDS011;4262;50.980;13.892;2023-02-04T10:08:08;8.23;;;4.20;;
8450;SDS011;4262;50.980;13.892;2023-02-04T10:10:40;7.27;;;4.80;;
8450;SDS011;4262;50.980;13.892;2023-02-04T10:13:09;8.93;;;4.53;;
8450;SDS011;4262;50.980;13.892;2023-02-04T10:15:41;8.77;;;5.07;;
8450;SDS011;4262;50.980;13.892;2023-02-04T10:18:10;14.97;;;4.57;;
8450;SDS011;4262;50.980;13.892;2023-02-04T10:20:42;9.20;;;4.13;;
8450;SDS011;4262;50.980;13.892;2023-02-04T10:23:09;11.57;;;4.60;;
8450;SDS011;4262;50.980;13.892;2023-02-04T10:25:36;12.77;;;5.10;;
8450;SDS011;4262;50.980;13.892;2023-02-04T10:28:05;9.60;;;4.50;;
8450;SDS011;4262;50.980;13.892;2023-02-04T10:30:37;7.17;;;4.30;;
8450;SDS011;4262;50.980;13.892;2023-02-04T10:33:12;8.47;;;4.83;;
8450;SDS011;4262;50.980;13.892;2023-02-04T10:35:45;11.17;;;5.60;;
8450;SDS011;4262;50.980;13.892;2023-02-04T10:38:12;8.37;;;5.10;;
8450;SDS011;4262;50.980;13.892;2023-02-04T10:40:39;14.07;;;8.23;;
8450;SDS011;4262;50.980;13.892;2023-02-04T10:43:09;17.67;;;8.03;;
8450;SDS011;4262;50.980;13.892;2023-02-04T10:45:36;9.50;;;5.27;;
8450;SDS011;4262;50.980;13.892;2023-02-04T10:48:05;14.13;;;5.27;;
8450;SDS011;4262;50.980;13.892;2023-02-04T10:50:32;8.50;;;4.43;;
8450;SDS011;4262;50.980;13.892;2023-02-04T10:53:00;9.10;;;4.23;;
8450;SDS011;4262;50.980;13.892;2023-02-04T10:55:41;7.23;;;4.17;;
8450;SDS011;4262;50.980;13.892;2023-02-04T10:58:13;9.03;;;4.13;;
8450;SDS011;4262;50.980;13.892;2023-02-04T11:00:43;9.80;;;4.10;;
8450;SDS011;4262;50.980;13.892;2023-02-04T11:03:10;10.70;;;4.13;;
8450;SDS011;4262;50.980;13.892;2023-02-04T11:05:41;10.70;;;4.00;;
8450;SDS011;4262;50.980;13.892;2023-02-04T11:08:18;7.63;;;3.60;;
8450;SDS011;4262;50.980;13.892;2023-02-04T11:10:48;11.13;;;4.37;;
8450;SDS011;4262;50.980;13.892;2023-02-04T11:13:22;9.30;;;4.57;;
8450;SDS011;4262;50.980;13.892;2023-02-04T11:18:25;9.70;;;4.17;;
8450;SDS011;4262;50.980;13.892;2023-02-04T11:20:57;8.40;;;4.10;;
8450;SDS011;4262;50.980;13.892;2023-02-04T11:23:28;7.07;;;3.90;;
8450;SDS011;4262;50.980;13.892;2023-02-04T11:26:01;6.90;;;4.23;;
8450;SDS011;4262;50.980;13.892;2023-02-04T11:28:43;9.60;;;4.00;;
8450;SDS011;4262;50.980;13.892;2023-02-04T11:31:29;9.50;;;4.10;;
8450;SDS011;4262;50.980;13.892;2023-02-04T11:34:08;7.43;;;3.50;;
8450;SDS011;4262;50.980;13.892;2023-02-04T11:36:55;7.73;;;4.00;;
8450;SDS011;4262;50.980;13.892;2023-02-04T11:39:37;7.50;;;3.77;;
8450;SDS011;4262;50.980;13.892;2023-02-04T11:42:13;7.57;;;3.30;;
8450;SDS011;4262;50.980;13.892;2023-02-04T11:44:53;6.83;;;3.60;;
8450;SDS011;4262;50.980;13.892;2023-02-04T11:47:24;8.90;;;3.70;;
8450;SDS011;4262;50.980;13.892;2023-02-04T11:49:54;10.43;;;3.70;;
8450;SDS011;4262;50.980;13.892;2023-02-04T11:52:25;10.60;;;3.47;;
8450;SDS011;4262;50.980;13.892;2023-02-04T11:54:52;10.60;;;3.87;;
8450;SDS011;4262;50.980;13.892;2023-02-04T11:57:19;9.37;;;4.23;;
8450;SDS011;4262;50.980;13.892;2023-02-04T11:59:46;10.67;;;3.77;;
8450;SDS011;4262;50.980;13.892;2023-02-04T12:02:15;10.63;;;4.60;;
8450;SDS011;4262;50.980;13.892;2023-02-04T12:04:49;7.97;;;4.20;;
8450;SDS011;4262;50.980;13.892;2023-02-04T12:07:20;8.00;;;4.00;;
8450;SDS011;4262;50.980;13.892;2023-02-04T12:09:50;13.23;;;3.93;;
8450;SDS011;4262;50.980;13.892;2023-02-04T12:12:22;8.97;;;4.87;;
8450;SDS011;4262;50.980;13.892;2023-02-04T12:14:55;8.03;;;4.27;;
8450;SDS011;4262;50.980;13.892;2023-02-04T12:17:24;12.10;;;4.23;;
8450;SDS011;4262;50.980;13.892;2023-02-04T12:19:50;10.20;;;4.13;;
8450;SDS011;4262;50.980;13.892;2023-02-04T12:22:17;7.37;;;2.97;;
8450;SDS011;4262;50.980;13.892;2023-02-04T12:24:44;11.00;;;3.07;;
8450;SDS011;4262;50.980;13.892;2023-02-04T12:27:10;7.73;;;2.60;;
8450;SDS011;4262;50.980;13.892;2023-02-04T12:29:37;6.00;;;2.63;;
8450;SDS011;4262;50.980;13.892;2023-02-04T12:32:03;14.40;;;4.10;;
8450;SDS011;4262;50.980;13.892;2023-02-04T12:34:31;13.40;;;5.40;;
8450;SDS011;4262;50.980;13.892;2023-02-04T12:36:59;14.80;;;6.20;;
8450;SDS011;4262;50.980;13.892;2023-02-04T12:39:26;16.47;;;6.90;;
8450;SDS011;4262;50.980;13.892;2023-02-04T12:41:54;10.60;;;5.07;;
8450;SDS011;4262;50.980;13.892;2023-02-04T12:44:20;9.80;;;4.80;;
8450;SDS011;4262;50.980;13.892;2023-02-04T12:46:47;13.70;;;5.03;;
8450;SDS011;4262;50.980;13.892;2023-02-04T12:49:15;11.00;;;5.20;;
8450;SDS011;4262;50.980;13.892;2023-02-04T12:51:45;8.90;;;4.03;;
8450;SDS011;4262;50.980;13.892;2023-02-04T12:54:11;9.93;;;4.70;;
8450;SDS011;4262;50.980;13.892;2023-02-04T12:56:38;9.27;;;4.30;;
8450;SDS011;4262;50.980;13.892;2023-02-04T12:59:05;9.03;;;4.20;;
8450;SDS011;4262;50.980;13.892;2023-02-04T13:01:31;6.43;;;3.43;;
8450;SDS011;4262;50.980;13.892;2023-02-04T13:03:58;10.57;;;3.43;;
8450;SDS011;4262;50.980;13.892;2023-02-04T13:06:27;8.40;;;2.97;;
8450;SDS011;4262;50.980;13.892;2023-02-04T13:08:56;7.37;;;3.10;;
8450;SDS011;4262;50.980;13.892;2023-02-04T13:11:23;12.17;;;3.40;;
8450;SDS011;4262;50.980;13.892;2023-02-04T13:13:49;7.67;;;3.67;;
8450;SDS011;4262;50.980;13.892;2023-02-04T13:16:16;9.87;;;5.13;;
8450;SDS011;4262;50.980;13.892;2023-02-04T13:18:45;10.30;;;4.60;;
8450;SDS011;4262;50.980;13.892;2023-02-04T13:21:11;7.93;;;3.53;;
8450;SDS011;4262;50.980;13.892;2023-02-04T13:23:38;12.77;;;6.50;;
8450;SDS011;4262;50.980;13.892;2023-02-04T13:26:06;8.13;;;3.83;;
8450;SDS011;4262;50.980;13.892;2023-02-04T13:28:34;6.23;;;3.10;;
8450;SDS011;4262;50.980;13.892;2023-02-04T13:31:01;6.40;;;2.90;;
8450;SDS011;4262;50.980;13.892;2023-02-04T13:33:28;6.03;;;2.57;;
8450;SDS011;4262;50.980;13.892;2023-02-04T13:35:56;8.63;;;2.63;;
8450;SDS011;4262;50.980;13.892;2023-02-04T13:38:23;5.10;;;2.03;;
8450;SDS011;4262;50.980;13.892;2023-02-04T13:40:50;7.23;;;2.37;;
8450;SDS011;4262;50.980;13.892;2023-02-04T13:43:18;8.13;;;2.83;;
8450;SDS011;4262;50.980;13.892;2023-02-04T13:45:45;8.27;;;3.77;;
8450;SDS011;4262;50.980;13.892;2023-02-04T13:48:13;7.10;;;3.50;;
8450;SDS011;4262;50.980;13.892;2023-02-04T13:50:40;7.17;;;3.40;;
8450;SDS011;4262;50.980;13.892;2023-02-04T13:53:08;9.27;;;2.77;;
8450;SDS011;4262;50.980;13.892;2023-02-04T13:55:34;6.87;;;2.90;;
8450;SDS011;4262;50.980;13.892;2023-02-04T13:58:01;7.27;;;2.60;;
8450;SDS011;4262;50.980;13.892;2023-02-04T14:00:29;6.77;;;2.77;;
8450;SDS011;4262;50.980;13.892;2023-02-04T14:02:55;5.57;;;2.47;;
8450;SDS011;4262;50.980;13.892;2023-02-04T14:05:22;5.10;;;1.90;;
8450;SDS011;4262;50.980;13.892;2023-02-04T14:07:50;5.67;;;1.77;;
8450;SDS011;4262;50.980;13.892;2023-02-04T14:10:17;9.23;;;2.50;;
8450;SDS011;4262;50.980;13.892;2023-02-04T14:12:47;6.27;;;2.40;;
8450;SDS011;4262;50.980;13.892;2023-02-04T14:15:14;6.80;;;2.70;;
8450;SDS011;4262;50.980;13.892;2023-02-04T14:17:42;7.03;;;2.03;;
8450;SDS011;4262;50.980;13.892;2023-02-04T14:20:11;5.70;;;1.90;;
8450;SDS011;4262;50.980;13.892;2023-02-04T14:22:38;7.70;;;2.30;;
8450;SDS011;4262;50.980;13.892;2023-02-04T14:25:04;12.10;;;3.90;;
8450;SDS011;4262;50.980;13.892;2023-02-04T14:27:31;8.30;;;2.30;;
8450;SDS011;4262;50.980;13.892;2023-02-04T14:29:59;5.70;;;2.27;;
8450;SDS011;4262;50.980;13.892;2023-02-04T14:32:26;8.60;;;2.80;;
8450;SDS011;4262;50.980;13.892;2023-02-04T14:34:54;6.63;;;3.03;;
8450;SDS011;4262;50.980;13.892;2023-02-04T14:37:20;6.80;;;2.63;;
8450;SDS011;4262;50.980;13.892;2023-02-04T14:39:51;6.30;;;3.53;;
8450;SDS011;4262;50.980;13.892;2023-02-04T14:42:18;7.00;;;3.67;;
8450;SDS011;4262;50.980;13.892;2023-02-04T14:44:44;6.90;;;2.93;;
8450;SDS011;4262;50.980;13.892;2023-02-04T14:47:11;6.00;;;2.93;;
8450;SDS011;4262;50.980;13.892;2023-02-04T14:49:38;6.43;;;3.30;;
8450;SDS011;4262;50.980;13.892;2023-02-04T14:52:07;8.30;;;3.57;;
8450;SDS011;4262;50.980;13.892;2023-02-04T14:54:35;7.93;;;4.40;;
8450;SDS011;4262;50.980;13.892;2023-02-04T14:57:02;6.60;;;3.37;;
8450;SDS011;4262;50.980;13.892;2023-02-04T14:59:30;10.27;;;3.63;;
8450;SDS011;4262;50.980;13.892;2023-02-04T15:01:57;9.60;;;4.20;;
8450;SDS011;4262;50.980;13.892;2023-02-04T15:04:24;9.03;;;4.00;;
8450;SDS011;4262;50.980;13.892;2023-02-04T15:06:52;6.53;;;2.70;;
8450;SDS011;4262;50.980;13.892;2023-02-04T15:09:21;6.17;;;2.90;;
8450;SDS011;4262;50.980;13.892;2023-02-04T15:11:48;7.73;;;3.60;;
8450;SDS011;4262;50.980;13.892;2023-02-04T15:14:14;7.23;;;2.90;;
8450;SDS011;4262;50.980;13.892;2023-02-04T15:16:41;6.07;;;3.47;;
8450;SDS011;4262;50.980;13.892;2023-02-04T15:19:10;7.30;;;3.40;;
8450;SDS011;4262;50.980;13.892;2023-02-04T15:21:37;7.03;;;3.70;;
8450;SDS011;4262;50.980;13.892;2023-02-04T15:24:04;7.70;;;3.90;;
8450;SDS011;4262;50.980;13.892;2023-02-04T15:26:32;11.93;;;4.17;;
8450;SDS011;4262;50.980;13.892;2023-02-04T15:28:59;7.10;;;3.40;;
8450;SDS011;4262;50.980;13.892;2023-02-04T15:31:26;7.97;;;3.83;;
8450;SDS011;4262;50.980;13.892;2023-02-04T15:33:53;6.60;;;3.17;;
8450;SDS011;4262;50.980;13.892;2023-02-04T15:36:20;6.37;;;3.17;;
8450;SDS011;4262;50.980;13.892;2023-02-04T15:38:47;6.57;;;2.67;;
8450;SDS011;4262;50.980;13.892;2023-02-04T15:41:14;6.77;;;2.53;;
8450;SDS011;4262;50.980;13.892;2023-02-04T15:43:42;5.97;;;2.40;;
8450;SDS011;4262;50.980;13.892;2023-02-04T15:46:08;6.37;;;2.90;;
8450;SDS011;4262;50.980;13.892;2023-02-04T15:48:36;6.90;;;3.33;;
8450;SDS011;4262;50.980;13.892;2023-02-04T15:51:04;5.97;;;3.40;;
8450;SDS011;4262;50.980;13.892;2023-02-04T15:53:31;6.90;;;3.77;;
8450;SDS011;4262;50.980;13.892;2023-02-04T15:55:59;5.63;;;3.13;;
8450;SDS011;4262;50.980;13.892;2023-02-04T15:58:25;7.93;;;3.30;;
8450;SDS011;4262;50.980;13.892;2023-02-04T16:00:53;10.07;;;3.27;;
8450;SDS011;4262;50.980;13.892;2023-02-04T16:03:20;12.87;;;3.40;;
8450;SDS011;4262;50.980;13.892;2023-02-04T16:05:47;7.43;;;3.10;;
8450;SDS011;4262;50.980;13.892;2023-02-04T16:08:15;10.37;;;3.87;;
8450;SDS011;4262;50.980;13.892;2023-02-04T16:10:43;9.03;;;3.00;;
8450;SDS011;4262;50.980;13.892;2023-02-04T16:13:10;6.40;;;3.20;;
8450;SDS011;4262;50.980;13.892;2023-02-04T16:15:37;6.40;;;3.67;;
8450;SDS011;4262;50.980;13.892;2023-02-04T16:18:07;10.47;;;3.87;;
8450;SDS011;4262;50.980;13.892;2023-02-04T16:20:34;8.60;;;3.67;;
8450;SDS011;4262;50.980;13.892;2023-02-04T16:23:02;7.53;;;3.70;;
8450;SDS011;4262;50.980;13.892;2023-02-04T16:25:31;6.70;;;4.03;;
8450;SDS011;4262;50.980;13.892;2023-02-04T16:27:58;11.10;;;4.00;;
8450;SDS011;4262;50.980;13.892;2023-02-04T16:30:26;7.40;;;4.00;;
8450;SDS011;4262;50.980;13.892;2023-02-04T16:32:53;10.07;;;4.37;;
8450;SDS011;4262;50.980;13.892;2023-02-04T16:35:21;15.00;;;3.80;;
8450;SDS011;4262;50.980;13.892;2023-02-04T16:37:47;7.73;;;3.70;;
8450;SDS011;4262;50.980;13.892;2023-02-04T16:40:14;6.23;;;3.40;;
8450;SDS011;4262;50.980;13.892;2023-02-04T16:42:42;6.60;;;3.23;;
8450;SDS011;4262;50.980;13.892;2023-02-04T16:45:09;8.53;;;4.10;;
8450;SDS011;4262;50.980;13.892;2023-02-04T16:47:37;10.73;;;5.53;;
8450;SDS011;4262;50.980;13.892;2023-02-04T16:50:05;9.00;;;4.70;;
8450;SDS011;4262;50.980;13.892;2023-02-04T16:52:33;13.63;;;5.10;;
8450;SDS011;4262;50.980;13.892;2023-02-04T16:55:00;11.73;;;5.03;;
8450;SDS011;4262;50.980;13.892;2023-02-04T16:57:27;11.20;;;5.37;;
8450;SDS011;4262;50.980;13.892;2023-02-04T16:59:54;9.73;;;5.40;;
8450;SDS011;4262;50.980;13.892;2023-02-04T17:02:21;8.97;;;3.90;;
8450;SDS011;4262;50.980;13.892;2023-02-04T17:04:47;16.17;;;5.83;;
8450;SDS011;4262;50.980;13.892;2023-02-04T17:07:14;12.00;;;6.60;;
8450;SDS011;4262;50.980;13.892;2023-02-04T17:09:43;11.67;;;7.07;;
8450;SDS011;4262;50.980;13.892;2023-02-04T17:12:10;10.10;;;5.50;;
8450;SDS011;4262;50.980;13.892;2023-02-04T17:14:37;15.20;;;4.60;;
8450;SDS011;4262;50.980;13.892;2023-02-04T17:17:05;9.67;;;5.03;;
8450;SDS011;4262;50.980;13.892;2023-02-04T17:19:33;9.03;;;5.47;;
8450;SDS011;4262;50.980;13.892;2023-02-04T17:22:01;12.40;;;6.90;;
8450;SDS011;4262;50.980;13.892;2023-02-04T17:24:28;23.40;;;13.90;;
8450;SDS011;4262;50.980;13.892;2023-02-04T17:26:56;23.20;;;14.53;;
8450;SDS011;4262;50.980;13.892;2023-02-04T17:29:26;22.40;;;11.07;;
8450;SDS011;4262;50.980;13.892;2023-02-04T17:31:52;18.20;;;12.00;;
8450;SDS011;4262;50.980;13.892;2023-02-04T17:34:20;15.83;;;9.10;;
8450;SDS011;4262;50.980;13.892;2023-02-04T17:36:48;18.73;;;10.87;;
8450;SDS011;4262;50.980;13.892;2023-02-04T17:39:15;14.47;;;9.60;;
8450;SDS011;4262;50.980;13.892;2023-02-04T17:41:41;17.80;;;10.00;;
8450;SDS011;4262;50.980;13.892;2023-02-04T17:44:10;14.60;;;9.40;;
8450;SDS011;4262;50.980;13.892;2023-02-04T17:46:41;15.53;;;8.13;;
8450;SDS011;4262;50.980;13.892;2023-02-04T17:49:08;12.20;;;7.00;;
8450;SDS011;4262;50.980;13.892;2023-02-04T17:51:36;14.00;;;7.67;;
8450;SDS011;4262;50.980;13.892;2023-02-04T17:54:02;14.50;;;7.20;;
8450;SDS011;4262;50.980;13.892;2023-02-04T17:56:29;15.93;;;8.27;;
8450;SDS011;4262;50.980;13.892;2023-02-04T17:58:56;19.50;;;10.90;;
8450;SDS011;4262;50.980;13.892;2023-02-04T18:01:25;19.47;;;10.50;;
8450;SDS011;4262;50.980;13.892;2023-02-04T18:03:51;22.73;;;10.83;;
8450;SDS011;4262;50.980;13.892;2023-02-04T18:06:20;21.03;;;11.70;;
8450;SDS011;4262;50.980;13.892;2023-02-04T18:08:49;18.80;;;10.67;;
8450;SDS011;4262;50.980;13.892;2023-02-04T18:11:19;21.53;;;11.97;;
8450;SDS011;4262;50.980;13.892;2023-02-04T18:13:48;20.53;;;11.70;;
8450;SDS011;4262;50.980;13.892;2023-02-04T18:16:18;36.90;;;19.30;;
8450;SDS011;4262;50.980;13.892;2023-02-04T18:18:50;56.20;;;28.37;;
8450;SDS011;4262;50.980;13.892;2023-02-04T18:21:22;45.43;;;23.03;;
8450;SDS011;4262;50.980;13.892;2023-02-04T18:23:53;35.10;;;19.13;;
8450;SDS011;4262;50.980;13.892;2023-02-04T18:26:26;31.80;;;16.90;;
8450;SDS011;4262;50.980;13.892;2023-02-04T18:28:52;31.63;;;16.07;;
8450;SDS011;4262;50.980;13.892;2023-02-04T18:31:28;33.60;;;13.90;;
8450;SDS011;4262;50.980;13.892;2023-02-04T18:34:00;21.97;;;13.07;;
8450;SDS011;4262;50.980;13.892;2023-02-04T18:36:28;25.23;;;15.40;;
8450;SDS011;4262;50.980;13.892;2023-02-04T18:38:58;22.63;;;13.53;;
8450;SDS011;4262;50.980;13.892;2023-02-04T18:41:31;24.20;;;14.20;;
8450;SDS011;4262;50.980;13.892;2023-02-04T18:43:59;26.10;;;12.83;;
8450;SDS011;4262;50.980;13.892;2023-02-04T18:46:28;24.03;;;12.57;;
8450;SDS011;4262;50.980;13.892;2023-02-04T18:49:03;23.37;;;10.83;;
8450;SDS011;4262;50.980;13.892;2023-02-04T18:51:36;18.40;;;10.10;;
8450;SDS011;4262;50.980;13.892;2023-02-04T18:54:22;17.27;;;10.23;;
8450;SDS011;4262;50.980;13.892;2023-02-04T18:56:51;19.43;;;10.00;;
8450;SDS011;4262;50.980;13.892;2023-02-04T18:59:20;20.53;;;9.97;;
8450;SDS011;4262;50.980;13.892;2023-02-04T19:01:52;16.07;;;9.53;;
8450;SDS011;4262;50.980;13.892;2023-02-04T19:04:21;13.73;;;8.90;;
8450;SDS011;4262;50.980;13.892;2023-02-04T19:06:50;17.40;;;7.73;;
8450;SDS011;4262;50.980;13.892;2023-02-04T19:09:22;17.40;;;6.87;;
8450;SDS011;4262;50.980;13.892;2023-02-04T19:11:52;11.00;;;6.20;;
8450;SDS011;4262;50.980;13.892;2023-02-04T19:14:21;9.50;;;6.40;;
8450;SDS011;4262;50.980;13.892;2023-02-04T19:16:51;11.80;;;6.33;;
8450;SDS011;4262;50.980;13.892;2023-02-04T19:19:34;14.70;;;6.27;;
8450;SDS011;4262;50.980;13.892;2023-02-04T19:22:17;13.30;;;7.50;;
8450;SDS011;4262;50.980;13.892;2023-02-04T19:24:47;15.37;;;7.93;;
8450;SDS011;4262;50.980;13.892;2023-02-04T19:27:24;14.50;;;7.50;;
8450;SDS011;4262;50.980;13.892;2023-02-04T19:29:55;46.00;;;11.90;;
8450;SDS011;4262;50.980;13.892;2023-02-04T19:32:28;16.70;;;10.27;;
8450;SDS011;4262;50.980;13.892;2023-02-04T19:35:00;14.60;;;8.63;;
8450;SDS011;4262;50.980;13.892;2023-02-04T19:37:41;22.10;;;10.20;;
8450;SDS011;4262;50.980;13.892;2023-02-04T19:40:23;23.03;;;12.30;;
8450;SDS011;4262;50.980;13.892;2023-02-04T19:42:52;31.27;;;14.80;;
8450;SDS011;4262;50.980;13.892;2023-02-04T19:45:20;34.40;;;19.00;;
8450;SDS011;4262;50.980;13.892;2023-02-04T19:47:48;23.97;;;13.10;;
8450;SDS011;4262;50.980;13.892;2023-02-04T19:50:25;23.37;;;11.67;;
8450;SDS011;4262;50.980;13.892;2023-02-04T19:52:54;18.77;;;11.40;;
8450;SDS011;4262;50.980;13.892;2023-02-04T19:55:24;22.80;;;10.43;;
8450;SDS011;4262;50.980;13.892;2023-02-04T19:57:56;21.30;;;12.03;;
8450;SDS011;4262;50.980;13.892;2023-02-04T20:00:35;16.87;;;11.93;;
8450;SDS011;4262;50.980;13.892;2023-02-04T20:03:10;15.07;;;9.57;;
8450;SDS011;4262;50.980;13.892;2023-02-04T20:05:42;17.50;;;10.17;;
8450;SDS011;4262;50.980;13.892;2023-02-04T20:08:22;19.43;;;10.10;;